Time;durP1;ratioP1;P1;durP2;ratioP2;P2;SDS_P1;SDS_P2;PMS_P1;PMS_P2;Temp;Humidity;BMP_temperature;BMP_pressure;BME280_temperature;BME280_humidity;BME280_pressure;Samples;Min_cycle;Max_cycle;Signal;HPM_P1;HPM_P2
2023/12/05 03:38:17;;;;;;;25.17;10.20;;;;;;;-5.57;57.95;99688.00;6304165;22;20047;-93
2023/12/05 11:09:28;;;;;;;9.35;5.50;;;;;;;-5.82;61.25;99988.56;6249360;22;20012;-89
2023/12/05 11:44:56;;;;;;;21.55;10.18;;;;;;;-5.36;63.18;100121.34;6231905;22;20024;-91
2023/12/05 12:42:31;;;;;;;21.75;8.32;;;;;;;-5.51;61.22;100081.47;6184042;23;20027;-89
2023/12/05 12:45:04;;;;;;;25.90;10.30;;;;;;;-5.04;61.64;100147.50;6182406;23;20043;-87
2023/12/05 12:47:31;;;;;;;26.08;8.30;;;;;;;-4.79;61.62;100203.13;6183360;23;20031;-86
2023/12/05 12:50:08;;;;;;;22.55;10.35;;;;;;;-5.49;61.67;100072.28;6180374;23;20023;-88
2023/12/05 12:52:38;;;;;;;22.45;10.48;;;;;;;-5.10;61.69;100150.97;6156787;23;20024;-86
2023/12/05 12:55:08;;;;;;;25.83;9.52;;;;;;;-5.11;61.59;100148.47;6182874;23;20024;-87
2023/12/05 12:57:56;;;;;;;26.90;11.18;;;;;;;-5.12;61.88;100136.16;6186714;23;20542;-87
2023/12/05 13:00:26;;;;;;;20.95;10.18;;;;;;;-4.61;61.24;100206.16;6159599;23;20108;-89
2023/12/05 13:05:56;;;;;;;21.27;9.30;;;;;;;-4.68;61.48;100213.28;6302030;22;20055;-88
2023/12/05 13:09:08;;;;;;;25.08;10.32;;;;;;;-4.65;61.49;100210.22;6205953;22;20024;-88
2023/12/05 13:12:00;;;;;;;19.55;8.88;;;;;;;-4.56;61.02;100209.09;6262398;22;20024;-88
2023/12/05 13:24:14;;;;;;;26.67;10.90;;;;;;;-4.75;61.64;100221.22;6179362;23;20018;-89
2023/12/05 13:26:42;;;;;;;27.30;11.27;;;;;;;-5.02;61.63;100166.00;6177647;23;20014;-88
2023/12/05 13:29:59;;;;;;;18.13;8.68;;;;;;;-5.35;61.23;100107.03;6178593;23;20037;-87
2023/12/05 13:32:26;;;;;;;15.70;8.10;;;;;;;-4.92;61.09;100187.00;6176486;23;20024;-88
2023/12/05 13:34:56;;;;;;;23.80;9.70;;;;;;;-4.62;60.78;100204.50;6151274;23;20004;-88
2023/12/05 13:37:34;;;;;;;21.67;9.63;;;;;;;-4.79;60.30;100144.47;6182067;23;20028;-90
2023/12/05 13:40:16;;;;;;;23.60;9.80;;;;;;;-4.76;59.75;100150.22;6203396;23;20178;-88
2023/12/05 13:42:46;;;;;;;32.30;10.52;;;;;;;-4.23;59.57;100237.06;6155926;23;20024;-88
2023/12/05 13:45:15;;;;;;;30.40;10.18;;;;;;;-4.21;59.72;100238.50;6107400;23;20089;-91
2023/12/05 13:48:29;;;;;;;22.65;10.02;;;;;;;-4.74;59.48;100161.53;6132513;23;20026;-87
2023/12/05 13:57:15;;;;;;;23.80;9.82;;;;;;;-4.27;59.30;100250.00;6150956;23;20017;-88
2023/12/05 14:00:16;;;;;;;24.30;9.33;;;;;;;-4.31;59.58;100257.53;6079420;23;20013;-87
2023/12/05 14:03:26;;;;;;;24.20;9.90;;;;;;;-4.47;59.71;100222.28;6077330;23;20234;-87
2023/12/05 14:06:22;;;;;;;24.65;10.50;;;;;;;-4.18;59.49;100256.81;6152150;23;20037;-88
2023/12/05 14:30:25;;;;;;;22.95;9.30;;;;;;;-4.44;60.14;100264.59;6239486;22;20031;-88
2023/12/05 14:33:25;;;;;;;24.88;11.43;;;;;;;-4.42;60.91;100290.09;6189307;23;20027;-89
2023/12/05 14:35:56;;;;;;;28.20;11.27;;;;;;;-4.41;61.19;100302.41;6240763;23;20031;-87
2023/12/05 15:15:51;;;;;;;22.98;10.05;;;;;;;-5.00;63.09;100266.13;6295249;22;20044;-86
2023/12/05 15:18:21;;;;;;;27.00;10.38;;;;;;;-4.64;62.77;100309.75;6244783;23;20004;-89
2023/12/05 15:20:59;;;;;;;22.13;9.45;;;;;;;-5.18;63.04;100260.34;6222567;23;20020;-88
2023/12/05 15:24:29;;;;;;;27.10;11.37;;;;;;;-4.78;63.59;100325.63;6219670;23;20012;-88
2023/12/05 15:27:27;;;;;;;22.80;9.90;;;;;;;-4.74;63.45;100326.06;6245179;23;20235;-84
2023/12/05 15:30:49;;;;;;;26.27;10.75;;;;;;;-5.60;63.28;100189.94;6223214;23;20000;-86
2023/12/05 15:36:30;;;;;;;28.13;12.05;;;;;;;-4.98;63.18;100257.91;6257076;22;20034;-86
2023/12/05 15:39:31;;;;;;;30.85;14.05;;;;;;;-4.58;64.17;100317.00;6268738;23;20007;-85
2023/12/05 15:42:44;;;;;;;24.23;11.15;;;;;;;-4.39;62.54;100319.06;6242379;23;20050;-83
2023/12/05 15:45:23;;;;;;;28.80;11.20;;;;;;;-5.04;62.40;100264.81;6242071;23;20015;-85
2023/12/05 15:47:53;;;;;;;30.08;11.32;;;;;;;-4.67;62.75;100310.97;6238127;23;20027;-86
2023/12/05 15:50:29;;;;;;;23.00;10.68;;;;;;;-5.20;62.75;100238.38;6190659;23;20044;-85
2023/12/05 15:53:03;;;;;;;22.25;10.07;;;;;;;-4.57;62.72;100337.34;6192439;23;20031;-83
2023/12/05 15:55:37;;;;;;;;;;;;;;;-4.62;62.98;100332.56;6225435;23;20046;-84
2023/12/05 15:58:06;;;;;;;31.00;14.65;;;;;;;-5.11;62.85;100273.75;6160608;23;20298;-86
2023/12/05 16:00:47;;;;;;;32.67;14.55;;;;;;;-4.94;63.30;100311.69;6207315;23;20017;-85
2023/12/05 16:03:16;;;;;;;31.98;13.40;;;;;;;-5.14;63.38;100285.63;6182131;23;20080;-84
2023/12/05 16:05:44;;;;;;;35.33;14.02;;;;;;;-4.91;62.68;100300.66;6207883;23;20017;-88
2023/12/05 16:08:28;;;;;;;22.70;11.32;;;;;;;-4.74;62.82;100316.22;6163735;23;20028;-84
2023/12/05 16:11:05;;;;;;;34.47;13.50;;;;;;;-4.45;62.51;100354.50;6180146;23;20074;-84
2023/12/05 16:13:47;;;;;;;24.80;11.02;;;;;;;-4.73;62.41;100325.09;6206935;23;20036;-83
2023/12/05 16:16:21;;;;;;;22.55;12.02;;;;;;;-4.74;62.44;100300.22;6157515;23;20096;-83
2023/12/05 16:18:54;;;;;;;28.00;12.15;;;;;;;-4.48;62.61;100344.22;6136831;23;20001;-82
2023/12/05 16:21:41;;;;;;;27.50;11.43;;;;;;;-4.52;62.31;100349.09;6181451;23;20017;-82
2023/12/05 16:24:58;;;;;;;29.73;12.93;;;;;;;-4.83;62.26;100277.38;6211877;23;20025;-86
2023/12/05 16:27:41;;;;;;;29.45;11.57;;;;;;;-5.06;62.09;100237.53;6184672;23;20067;-84
2023/12/05 16:30:08;;;;;;;26.25;11.65;;;;;;;-5.11;61.92;100257.75;6156710;23;20007;-87
2023/12/05 16:33:10;;;;;;;26.13;11.43;;;;;;;-4.66;62.02;100317.97;6209499;23;20024;-90
2023/12/05 16:36:00;;;;;;;20.27;9.63;;;;;;;-4.26;62.93;100364.56;6210331;23;20009;-88
2023/12/05 16:38:37;;;;;;;23.88;9.85;;;;;;;-4.74;62.00;100310.88;6184642;23;20080;-88
2023/12/05 16:41:04;;;;;;;30.95;11.63;;;;;;;-4.38;62.12;100370.59;6220027;23;20027;-86
2023/12/05 16:44:14;;;;;;;29.10;13.75;;;;;;;-4.41;62.42;100371.78;6222334;22;20019;-84
2023/12/05 16:47:18;;;;;;;42.92;16.48;;;;;;;-4.61;62.27;100328.88;6180097;23;20005;-87
2023/12/05 16:50:52;;;;;;;30.23;13.23;;;;;;;-4.81;62.24;100271.84;6169939;23;20063;-86
2023/12/05 16:53:19;;;;;;;28.08;12.88;;;;;;;-4.54;61.56;100303.09;6152443;23;20005;-86
2023/12/05 17:01:50;;;;;;;25.95;11.30;;;;;;;-4.43;61.30;100322.31;6251822;23;19900;-87
2023/12/05 17:07:28;;;;;;;22.17;10.53;;;;;;;-4.50;61.19;100311.56;6251821;22;20044;-86
2023/12/05 17:10:47;;;;;;;29.88;12.18;;;;;;;-4.29;61.26;100338.25;6271425;22;20019;-86
2023/12/05 17:37:34;;;;;;;28.48;12.35;;;;;;;-5.02;62.81;100324.13;6244253;22;20088;-90
2023/12/05 17:47:43;;;;;;;19.13;9.55;;;;;;;-4.54;62.89;100407.16;6235675;23;20023;-85
2023/12/05 17:56:27;;;;;;;24.52;10.93;;;;;;;-4.80;62.42;100380.16;6259368;22;20027;-88
2023/12/05 17:58:54;;;;;;;30.70;11.98;;;;;;;-4.74;62.34;100371.41;6217832;23;20020;-89
2023/12/05 18:24:55;;;;;;;21.30;9.15;;;;;;;-4.96;63.08;100443.38;6265287;22;20031;-89
2023/12/05 18:28:05;;;;;;;15.90;7.53;;;;;;;-5.23;62.85;100430.69;6169673;23;20080;-87
2023/12/05 18:30:38;;;;;;;17.65;8.02;;;;;;;-5.44;63.16;100402.06;6246582;23;19997;-87
2023/12/05 18:33:40;;;;;;;16.17;7.32;;;;;;;-5.31;63.06;100410.25;6195111;23;20035;-88
2023/12/05 18:43:02;;;;;;;18.02;9.10;;;;;;;-5.08;63.11;100462.69;6266075;22;20032;-88
2023/12/05 18:45:33;;;;;;;15.50;7.78;;;;;;;-5.26;63.09;100423.06;6215687;23;20113;-87
2023/12/05 18:48:02;;;;;;;15.93;7.35;;;;;;;-5.69;63.13;100369.53;6241201;23;20024;-87
2023/12/05 18:51:02;;;;;;;18.02;7.93;;;;;;;-5.14;63.57;100477.56;6216936;23;20090;-86
2023/12/05 18:53:29;;;;;;;13.00;6.43;;;;;;;-5.24;63.08;100469.81;6238564;23;20016;-85
2023/12/05 18:57:04;;;;;;;11.05;5.80;;;;;;;-5.18;62.81;100481.59;6224680;23;20043;-88
2023/12/05 18:59:35;;;;;;;17.02;8.25;;;;;;;-5.71;63.03;100408.81;6238045;23;19998;-88
2023/12/05 19:02:03;;;;;;;18.33;8.90;;;;;;;-5.44;63.16;100456.19;6240554;23;20000;-87
2023/12/05 19:05:05;;;;;;;17.80;8.10;;;;;;;-5.31;63.10;100481.38;6219068;23;20063;-88
2023/12/05 19:07:33;;;;;;;19.50;8.15;;;;;;;-5.27;63.35;100477.34;6241028;23;20015;-88
2023/12/05 19:10:38;;;;;;;11.20;6.03;;;;;;;-5.31;62.83;100471.56;6198495;23;20080;-88
2023/12/05 19:13:12;;;;;;;18.73;8.13;;;;;;;-5.69;62.69;100393.50;6243443;23;20028;-89
2023/12/05 19:16:27;;;;;;;21.40;9.18;;;;;;;-5.04;62.50;100482.63;6239034;22;20072;-89
2023/12/05 19:20:07;;;;;;;15.38;6.65;;;;;;;-5.06;62.44;100482.81;6238021;22;20019;-89
2023/12/05 19:26:27;;;;;;;10.60;6.28;;;;;;;-5.59;62.31;100410.03;6224191;22;20008;-85
2023/12/05 19:29:59;;;;;;;18.35;7.53;;;;;;;-5.05;62.72;100484.47;6185781;23;20076;-89
2023/12/05 19:38:30;;;;;;;6.38;3.20;;;;;;;-5.19;62.70;100495.94;6267078;23;20024;-88
2023/12/05 19:40:58;;;;;;;12.95;7.20;;;;;;;-5.81;62.74;100394.94;6220186;23;20024;-91
2023/12/05 19:43:54;;;;;;;;;;;;;;;;;;;;;
2023/12/05 20:15:17;;;;;;;13.93;6.82;;;;;;;-5.32;63.29;100522.38;6232635;22;20036;-89
2023/12/05 20:30:00;;;;;;;17.83;8.57;;;;;;;-5.88;63.29;100407.31;6274848;22;20023;-87
2023/12/05 20:53:23;;;;;;;13.90;5.97;;;;;;;-5.13;62.82;100545.03;6234066;22;20017;-90
2023/12/05 20:56:18;;;;;;;12.23;6.30;;;;;;;-5.26;63.22;100545.66;6270617;22;20074;-91
2023/12/05 20:59:32;;;;;;;14.60;7.38;;;;;;;-5.95;63.00;100429.34;6241910;23;20020;-90
2023/12/05 21:06:28;;;;;;;19.13;7.47;;;;;;;-5.86;63.10;100477.16;6243649;23;20020;-89
2023/12/05 21:12:20;;;;;;;21.92;7.57;;;;;;;-5.12;62.55;100547.53;6268508;23;20032;-90
2023/12/05 21:15:12;;;;;;;15.20;7.03;;;;;;;-5.26;62.42;100569.66;6191471;23;20000;-90
2023/12/05 21:29:51;;;;;;;20.05;7.05;;;;;;;-5.44;63.89;100592.06;6236664;23;20039;-89
2023/12/05 21:38:27;;;;;;;13.02;6.82;;;;;;;-6.21;63.53;100447.50;6215388;22;20024;-89
2023/12/05 21:40:57;;;;;;;15.45;7.20;;;;;;;-5.84;63.86;100515.94;6234098;23;20036;-88
2023/12/05 21:43:40;;;;;;;17.95;7.78;;;;;;;-5.18;63.32;100614.06;6208696;23;20770;-89
2023/12/05 21:50:12;;;;;;;24.00;8.60;;;;;;;-5.33;63.81;100601.50;6233785;23;20028;-89
2023/12/05 21:55:53;;;;;;;26.70;9.55;;;;;;;-6.03;63.50;100493.28;6209036;22;20017;-89
2023/12/05 22:01:14;;;;;;;20.98;9.15;;;;;;;-5.36;63.24;100601.00;6205992;23;20016;-86
2023/12/05 22:03:42;;;;;;;18.80;8.68;;;;;;;-5.30;63.58;100611.78;6232560;23;20023;-86
2023/12/05 22:06:08;;;;;;;;;;;;;;;-5.39;63.67;100622.72;6208249;23;20071;-87
2023/12/05 22:09:19;;;;;;;15.75;6.53;;;;;;;-5.47;63.91;100591.59;6166784;23;19943;-86
2023/12/05 22:11:50;;;;;;;15.45;7.65;;;;;;;-5.26;63.57;100628.28;6142855;23;20514;-86
2023/12/05 22:14:17;;;;;;;15.82;7.38;;;;;;;-5.27;63.50;100608.78;6165450;23;20017;-86
2023/12/05 22:16:44;;;;;;;17.42;7.43;;;;;;;-5.45;63.34;100584.28;6170833;23;20093;-84
2023/12/05 22:19:36;;;;;;;19.20;8.52;;;;;;;-5.26;63.46;100615.78;6165736;23;20029;-84
2023/12/05 22:22:04;;;;;;;20.17;9.05;;;;;;;-5.13;63.49;100631.19;6114512;23;20017;-86
2023/12/05 22:24:54;;;;;;;20.58;8.68;;;;;;;-5.10;63.32;100624.66;6166927;23;20073;-87
2023/12/05 22:27:20;;;;;;;19.63;8.65;;;;;;;-5.71;63.39;100542.81;6115509;23;20028;-87
2023/12/05 22:29:46;;;;;;;16.48;7.95;;;;;;;-5.48;63.32;100574.78;6166957;23;20080;-87
2023/12/05 22:32:13;;;;;;;15.98;7.20;;;;;;;-5.19;63.23;100629.22;6167366;23;20056;-87
2023/12/05 22:34:39;;;;;;;17.27;6.57;;;;;;;-5.49;63.55;100580.31;6094029;23;20014;-87
2023/12/05 22:37:05;;;;;;;15.85;6.90;;;;;;;-5.62;63.46;100558.75;6166861;23;20018;-87
2023/12/05 22:39:31;;;;;;;15.35;7.80;;;;;;;-4.99;63.24;100635.72;6168102;23;20033;-87
2023/12/05 22:41:57;;;;;;;19.05;8.70;;;;;;;-5.00;62.82;100633.22;6141617;23;20025;-87
2023/12/05 22:44:31;;;;;;;13.32;6.82;;;;;;;-5.07;63.33;100646.44;6141522;23;20022;-86
2023/12/05 22:46:58;;;;;;;15.25;7.65;;;;;;;-5.24;63.26;100623.59;6226076;23;20020;-86
2023/12/05 22:49:24;;;;;;;15.93;7.38;;;;;;;-5.47;63.08;100573.78;6183175;23;20020;-87
2023/12/05 22:51:50;;;;;;;12.25;5.88;;;;;;;-5.37;63.11;100588.69;6233018;23;20071;-87
2023/12/05 22:54:16;;;;;;;15.57;7.20;;;;;;;-5.05;62.59;100625.78;6209409;23;20022;-86
2023/12/05 22:56:45;;;;;;;15.63;7.50;;;;;;;-5.40;63.04;100587.22;6234717;23;20023;-87
2023/12/05 22:59:11;;;;;;;22.90;8.10;;;;;;;-5.46;63.16;100595.94;6236081;23;20016;-86
2023/12/05 23:01:40;;;;;;;18.43;8.27;;;;;;;-5.32;63.01;100624.47;6209295;23;20035;-85
2023/12/05 23:04:07;;;;;;;18.50;8.80;;;;;;;-5.07;62.62;100638.44;6210627;23;20023;-88
2023/12/05 23:06:34;;;;;;;18.58;7.68;;;;;;;-5.26;62.62;100605.13;6236042;23;20024;-86
2023/12/05 23:09:00;;;;;;;22.30;9.00;;;;;;;-5.11;62.76;100631.00;6181598;23;20078;-86
2023/12/05 23:11:26;;;;;;;23.23;8.63;;;;;;;-4.92;62.39;100667.03;6259772;23;20012;-84
2023/12/05 23:13:52;;;;;;;17.05;7.55;;;;;;;-5.30;62.58;100586.97;6184496;23;20040;-86
2023/12/05 23:16:18;;;;;;;16.42;7.70;;;;;;;-4.82;62.27;100663.09;6232481;23;20042;-85
2023/12/05 23:18:44;;;;;;;20.20;8.23;;;;;;;-5.28;62.37;100625.78;6207486;23;20074;-87
2023/12/05 23:21:10;;;;;;;19.05;7.75;;;;;;;-5.21;62.74;100621.38;6258812;23;20016;-87
2023/12/05 23:23:37;;;;;;;18.02;8.32;;;;;;;-5.25;62.40;100621.94;6258213;23;20028;-87
2023/12/05 23:26:03;;;;;;;19.13;8.18;;;;;;;-5.01;62.31;100656.41;6182553;23;20024;-87
2023/12/05 23:28:29;;;;;;;19.10;7.70;;;;;;;-5.35;62.40;100608.84;6232640;23;20016;-87
2023/12/05 23:30:55;;;;;;;16.10;7.10;;;;;;;-5.21;62.44;100616.06;6262344;23;20091;-86
2023/12/05 23:33:21;;;;;;;20.52;7.82;;;;;;;-5.23;62.47;100627.94;6236578;23;20016;-87
2023/12/05 23:35:47;;;;;;;17.75;6.85;;;;;;;-5.01;62.03;100643.06;6211771;23;20031;-87
2023/12/05 23:41:29;;;;;;;17.15;7.00;;;;;;;-4.97;61.50;100631.06;6084742;23;20034;-85
2023/12/05 23:43:55;;;;;;;19.02;7.28;;;;;;;-5.26;61.65;100614.97;6081218;23;20018;-85
2023/12/05 23:46:25;;;;;;;18.63;8.35;;;;;;;-5.12;61.63;100648.84;6057744;23;20102;-85
2023/12/05 23:48:52;;;;;;;17.65;7.80;;;;;;;-5.45;61.59;100594.94;6058828;23;20546;-84
2023/12/05 23:51:21;;;;;;;15.85;7.47;;;;;;;-5.02;61.67;100669.94;6082880;23;20014;-85
2023/12/05 23:53:55;;;;;;;17.70;8.25;;;;;;;-5.11;61.74;100637.16;6036252;23;20032;-85
2023/12/05 23:56:21;;;;;;;16.45;7.47;;;;;;;-4.99;61.41;100677.56;6106334;23;20021;-85
2023/12/05 23:58:53;;;;;;;12.23;6.43;;;;;;;-4.91;61.09;100687.34;6082131;23;20018;-86
